Time;durP1;ratioP1;P1;durP2;ratioP2;P2;SDS_P1;SDS_P2;PMS_P1;PMS_P2;Temp;Humidity;BMP_temperature;BMP_pressure;BME280_temperature;BME280_humidity;BME280_pressure;Samples;Min_cycle;Max_cycle;Signal;HPM_P1;HPM_P2
2022/02/12 00:00:24;;;;;;;;;27.00;27.00;;;;;;;;5061444;28;8802;-78
2022/02/12 00:02:52;;;;;;;;;23.00;23.00;;;;;;;;5070122;28;8889;-78
2022/02/12 00:05:19;;;;;;;;;24.33;24.33;;;;;;;;5060495;28;8855;-80
2022/02/12 00:07:47;;;;;;;;;34.00;31.67;;;;;;;;5063162;28;8898;-80
2022/02/12 00:10:16;;;;;;;;;26.67;26.67;;;;;;;;5054184;28;8879;-81
2022/02/12 00:12:43;;;;;;;;;30.67;27.00;;;;;;;;5057844;28;8891;-80
2022/02/12 00:15:11;;;;;;;;;26.33;26.33;;;;;;;;5061541;28;8927;-80
2022/02/12 00:17:39;;;;;;;;;31.67;31.67;;;;;;;;5063526;28;8890;-81
2022/02/12 00:20:08;;;;;;;;;30.00;30.00;;;;;;;;5061418;28;8874;-80
2022/02/12 00:22:35;;;;;;;;;29.00;29.00;;;;;;;;5052669;28;8855;-79
2022/02/12 00:25:03;;;;;;;;;43.33;40.33;;;;;;;;5055284;28;8839;-77
2022/02/12 00:27:31;;;;;;;;;32.33;32.33;;;;;;;;5053783;28;8863;-80
2022/02/12 00:29:59;;;;;;;;;31.00;31.00;;;;;;;;5061005;28;8854;-79
2022/02/12 00:32:26;;;;;;;;;29.00;29.00;;;;;;;;5055108;28;8824;-77
2022/02/12 00:34:54;;;;;;;;;35.67;34.33;;;;;;;;5059969;28;8886;-77
2022/02/12 00:37:21;;;;;;;;;29.67;28.67;;;;;;;;5036790;28;9684;-78
2022/02/12 00:39:48;;;;;;;;;35.33;35.00;;;;;;;;5051428;28;8856;-79
2022/02/12 00:42:16;;;;;;;;;29.00;29.00;;;;;;;;5055931;28;8870;-79
2022/02/12 00:44:44;;;;;;;;;29.67;29.67;;;;;;;;5066009;28;8876;-78
2022/02/12 00:47:12;;;;;;;;;38.33;38.33;;;;;;;;5060055;28;8835;-79
2022/02/12 00:49:39;;;;;;;;;32.33;32.33;;;;;;;;5063717;28;8876;-79
2022/02/12 00:52:07;;;;;;;;;32.67;32.67;;;;;;;;5060050;28;8882;-77
2022/02/12 00:54:34;;;;;;;;;37.33;36.67;;;;;;;;5053472;28;8854;-76
2022/02/12 00:57:01;;;;;;;;;33.00;33.00;;;;;;;;5063101;28;8879;-77
2022/02/12 00:59:29;;;;;;;;;38.00;38.00;;;;;;;;5060413;28;8856;-78
2022/02/12 01:01:58;;;;;;;;;37.33;37.33;;;;;;;;5059345;28;8822;-80
2022/02/12 01:04:25;;;;;;;;;28.33;28.33;;;;;;;;5056772;28;8876;-79
2022/02/12 01:06:52;;;;;;;;;32.00;30.00;;;;;;;;5053351;28;8871;-76
2022/02/12 01:09:20;;;;;;;;;31.33;31.33;;;;;;;;5054726;28;8881;-77
2022/02/12 01:11:47;;;;;;;;;27.33;27.33;;;;;;;;5053404;28;9340;-76
2022/02/12 01:14:14;;;;;;;;;35.67;35.67;;;;;;;;5076502;28;8883;-80
2022/02/12 01:16:42;;;;;;;;;47.00;44.00;;;;;;;;5039850;28;8894;-80
2022/02/12 01:19:10;;;;;;;;;33.00;33.00;;;;;;;;5061536;28;9637;-79
2022/02/12 01:21:38;;;;;;;;;47.33;45.00;;;;;;;;5055556;28;8852;-80
2022/02/12 01:24:06;;;;;;;;;42.67;41.00;;;;;;;;5059820;28;9835;-80
2022/02/12 01:26:34;;;;;;;;;42.00;42.00;;;;;;;;5054648;28;8864;-77
2022/02/12 01:29:01;;;;;;;;;37.67;34.33;;;;;;;;5048594;28;8878;-80
2022/02/12 01:31:29;;;;;;;;;32.67;32.00;;;;;;;;5055918;28;8973;-75
2022/02/12 01:33:56;;;;;;;;;36.00;36.00;;;;;;;;5048072;28;8864;-75
2022/02/12 01:36:25;;;;;;;;;35.00;34.33;;;;;;;;5045816;28;8848;-80
2022/02/12 01:38:52;;;;;;;;;40.67;40.67;;;;;;;;5053697;28;8871;-78
2022/02/12 01:41:19;;;;;;;;;36.33;34.00;;;;;;;;5055130;28;10039;-80
2022/02/12 01:43:47;;;;;;;;;34.67;33.00;;;;;;;;5062841;28;8840;-80
2022/02/12 01:46:14;;;;;;;;;32.33;32.33;;;;;;;;5061551;28;8891;-79
2022/02/12 01:48:43;;;;;;;;;31.00;30.67;;;;;;;;5042258;28;8854;-78
2022/02/12 01:51:10;;;;;;;;;34.33;32.33;;;;;;;;5051188;28;8885;-79
2022/02/12 01:53:39;;;;;;;;;39.67;39.00;;;;;;;;5064238;28;8863;-78
2022/02/12 01:56:06;;;;;;;;;25.67;25.67;;;;;;;;5041100;28;8864;-80
2022/02/12 01:58:34;;;;;;;;;38.00;36.00;;;;;;;;5052882;28;8874;-77
2022/02/12 02:01:01;;;;;;;;;33.00;32.00;;;;;;;;5042500;28;9628;-79
2022/02/12 02:03:29;;;;;;;;;29.00;29.00;;;;;;;;5065737;28;8880;-80
2022/02/12 02:05:56;;;;;;;;;35.00;34.33;;;;;;;;5056569;28;8986;-79
2022/02/12 02:08:24;;;;;;;;;15.67;14.00;;;;;;;;5055438;28;8918;-80
2022/02/12 02:10:54;;;;;;;;;34.67;34.00;;;;;;;;5053189;28;8898;-78
2022/02/12 02:13:25;;;;;;;;;35.00;35.00;;;;;;;;5056929;28;8880;-77
2022/02/12 02:15:53;;;;;;;;;45.00;42.00;;;;;;;;5059754;28;8876;-79
2022/02/12 02:18:21;;;;;;;;;32.33;32.00;;;;;;;;5043517;28;8931;-79
2022/02/12 02:20:48;;;;;;;;;32.00;32.00;;;;;;;;5049628;28;8996;-78
2022/02/12 02:23:17;;;;;;;;;26.67;23.67;;;;;;;;5058449;28;8856;-78
2022/02/12 02:25:45;;;;;;;;;26.33;26.33;;;;;;;;5059352;28;8868;-80
2022/02/12 02:28:12;;;;;;;;;24.33;24.33;;;;;;;;5045769;28;9636;-78
2022/02/12 02:30:42;;;;;;;;;26.00;26.00;;;;;;;;5045028;28;9561;-79
2022/02/12 02:33:09;;;;;;;;;32.33;32.33;;;;;;;;5061496;28;8852;-80
2022/02/12 02:35:37;;;;;;;;;36.00;36.00;;;;;;;;5053262;28;8867;-80
2022/02/12 02:38:08;;;;;;;;;33.33;33.33;;;;;;;;5060603;28;8894;-77
2022/02/12 02:40:37;;;;;;;;;30.00;30.00;;;;;;;;5049898;28;8929;-79
2022/02/12 02:43:05;;;;;;;;;27.00;25.00;;;;;;;;5048866;28;9643;-78
2022/02/12 02:45:33;;;;;;;;;29.33;29.33;;;;;;;;5056719;28;8870;-79
2022/02/12 02:48:01;;;;;;;;;27.00;27.00;;;;;;;;5055875;28;8918;-79
2022/02/12 02:56:03;;;;;;;;;25.33;25.33;;;;;;;;5019855;28;8876;-80
2022/02/12 02:58:34;;;;;;;;;27.33;27.33;;;;;;;;5061094;28;8881;-80
2022/02/12 03:01:02;;;;;;;;;30.00;30.00;;;;;;;;5042598;28;8854;-79
2022/02/12 03:03:30;;;;;;;;;28.67;28.67;;;;;;;;5057491;28;8897;-79
2022/02/12 03:05:58;;;;;;;;;23.33;23.33;;;;;;;;5046831;28;8852;-79
2022/02/12 03:08:26;;;;;;;;;24.33;23.33;;;;;;;;5057726;28;8898;-79
2022/02/12 03:10:53;;;;;;;;;20.67;19.00;;;;;;;;5037792;28;8922;-80
2022/02/12 03:13:22;;;;;;;;;20.00;20.00;;;;;;;;5050406;28;8911;-78
2022/02/12 03:15:50;;;;;;;;;19.00;19.00;;;;;;;;5075451;28;8881;-79
2022/02/12 03:18:19;;;;;;;;;20.67;20.67;;;;;;;;5064461;28;8892;-78
2022/02/12 03:20:47;;;;;;;;;14.00;14.00;;;;;;;;5056017;28;8848;-79
2022/02/12 03:23:14;;;;;;;;;13.00;13.00;;;;;;;;5056513;28;8918;-79
2022/02/12 03:25:41;;;;;;;;;15.67;15.67;;;;;;;;5062148;28;8884;-80
2022/02/12 03:28:08;;;;;;;;;19.67;19.00;;;;;;;;5058739;28;8864;-77
2022/02/12 03:30:40;;;;;;;;;22.00;22.00;;;;;;;;5047349;28;8811;-79
2022/02/12 03:33:08;;;;;;;;;17.33;17.33;;;;;;;;5050550;28;8900;-79
2022/02/12 03:35:36;;;;;;;;;16.67;16.67;;;;;;;;5060336;28;8941;-79
2022/02/12 03:38:11;;;;;;;;;20.00;20.00;;;;;;;;5027707;28;8874;-80
2022/02/12 03:40:40;;;;;;;;;20.00;20.00;;;;;;;;5050588;28;8840;-78
2022/02/12 03:43:07;;;;;;;;;21.00;21.00;;;;;;;;5059710;28;8887;-79
2022/02/12 03:45:37;;;;;;;;;24.00;23.33;;;;;;;;5044295;28;8919;-76
2022/02/12 03:48:05;;;;;;;;;20.33;20.33;;;;;;;;5039845;28;8850;-79
2022/02/12 03:50:33;;;;;;;;;23.00;23.00;;;;;;;;5060101;28;8898;-79
2022/02/12 03:53:01;;;;;;;;;17.33;17.00;;;;;;;;5057428;28;9024;-77
2022/02/12 03:55:29;;;;;;;;;17.00;17.00;;;;;;;;5050788;28;8887;-76
2022/02/12 03:57:58;;;;;;;;;20.00;20.00;;;;;;;;5030800;28;8873;-76
2022/02/12 04:00:25;;;;;;;;;24.00;24.00;;;;;;;;5030721;28;8812;-79
2022/02/12 04:02:54;;;;;;;;;24.00;21.33;;;;;;;;5060179;28;8924;-78
2022/02/12 04:05:21;;;;;;;;;19.67;19.67;;;;;;;;5058649;28;8876;-80
2022/02/12 04:07:49;;;;;;;;;20.00;20.00;;;;;;;;5055271;28;8940;-79
2022/02/12 04:10:17;;;;;;;;;26.33;23.33;;;;;;;;5057788;28;8860;-76
2022/02/12 04:12:45;;;;;;;;;23.00;20.00;;;;;;;;5059793;28;8860;-79
2022/02/12 04:15:13;;;;;;;;;30.67;28.67;;;;;;;;5060534;28;8856;-76
2022/02/12 04:17:41;;;;;;;;;22.00;22.00;;;;;;;;5053601;28;8912;-77
2022/02/12 04:20:13;;;;;;;;;22.00;22.00;;;;;;;;5065124;28;8837;-75
2022/02/12 04:22:41;;;;;;;;;23.33;23.33;;;;;;;;5061503;28;8864;-78
2022/02/12 04:25:11;;;;;;;;;27.33;25.67;;;;;;;;5078256;28;8860;-80
2022/02/12 04:27:38;;;;;;;;;18.33;18.33;;;;;;;;5048697;28;8870;-77
2022/02/12 04:30:07;;;;;;;;;19.33;19.33;;;;;;;;5037968;28;8854;-79
2022/02/12 04:32:34;;;;;;;;;23.00;20.00;;;;;;;;5077374;28;8880;-76
2022/02/12 04:35:02;;;;;;;;;26.00;24.33;;;;;;;;5055343;28;8890;-78
2022/02/12 04:37:31;;;;;;;;;22.33;22.33;;;;;;;;5044444;28;8860;-81
2022/02/12 04:39:59;;;;;;;;;20.33;20.33;;;;;;;;5060900;28;8902;-75
2022/02/12 04:42:27;;;;;;;;;20.00;20.00;;;;;;;;5044622;28;8888;-75
2022/02/12 04:44:55;;;;;;;;;23.33;23.00;;;;;;;;5060631;28;9602;-80
2022/02/12 04:47:23;;;;;;;;;19.67;19.67;;;;;;;;5056618;28;8858;-81
2022/02/12 04:49:50;;;;;;;;;25.00;24.00;;;;;;;;5064941;28;8848;-79
2022/02/12 04:52:19;;;;;;;;;21.67;21.67;;;;;;;;5059078;28;8900;-80
2022/02/12 04:54:48;;;;;;;;;22.00;20.00;;;;;;;;5064178;28;8849;-81
2022/02/12 04:57:16;;;;;;;;;17.00;17.00;;;;;;;;5059197;28;8868;-76
2022/02/12 04:59:44;;;;;;;;;23.00;23.00;;;;;;;;5061425;28;8864;-75
2022/02/12 05:02:11;;;;;;;;;23.67;23.67;;;;;;;;5062647;28;8880;-79
2022/02/12 05:04:38;;;;;;;;;23.00;23.00;;;;;;;;5052364;28;8881;-80
2022/02/12 05:07:06;;;;;;;;;26.00;24.33;;;;;;;;5045689;28;9926;-79
2022/02/12 05:09:35;;;;;;;;;17.00;17.00;;;;;;;;5064115;28;8927;-79
2022/02/12 05:12:05;;;;;;;;;16.67;16.00;;;;;;;;5062425;28;8972;-79
2022/02/12 05:14:33;;;;;;;;;25.00;25.00;;;;;;;;5064633;28;8874;-75
2022/02/12 05:17:01;;;;;;;;;21.00;21.00;;;;;;;;5051754;28;9624;-77
2022/02/12 05:19:29;;;;;;;;;19.00;19.00;;;;;;;;5055048;28;8852;-78
2022/02/12 05:21:56;;;;;;;;;22.00;22.00;;;;;;;;5033406;28;8885;-79
2022/02/12 05:24:23;;;;;;;;;17.33;17.33;;;;;;;;5051280;28;8886;-79
2022/02/12 05:26:51;;;;;;;;;17.33;17.00;;;;;;;;5050098;28;8856;-80
2022/02/12 05:29:19;;;;;;;;;16.00;16.00;;;;;;;;5059956;28;8867;-80
2022/02/12 05:31:47;;;;;;;;;22.00;22.00;;;;;;;;5050896;28;8835;-82
2022/02/12 05:34:14;;;;;;;;;19.33;19.33;;;;;;;;5062136;28;8948;-80
2022/02/12 05:36:41;;;;;;;;;16.00;15.00;;;;;;;;5078548;28;8979;-80
2022/02/12 05:39:10;;;;;;;;;15.00;15.00;;;;;;;;5050734;28;8934;-79
2022/02/12 05:41:38;;;;;;;;;18.00;18.00;;;;;;;;5054938;28;8881;-79
2022/02/12 05:44:06;;;;;;;;;17.33;17.33;;;;;;;;5058227;28;8880;-78
2022/02/12 05:46:35;;;;;;;;;13.00;13.00;;;;;;;;5052017;28;8888;-79
2022/02/12 05:49:04;;;;;;;;;20.33;20.33;;;;;;;;5059657;28;8872;-79
2022/02/12 05:51:32;;;;;;;;;16.00;16.00;;;;;;;;5056732;28;8871;-79
2022/02/12 05:54:00;;;;;;;;;15.67;15.67;;;;;;;;5054834;28;8860;-79
2022/02/12 05:56:28;;;;;;;;;15.00;15.00;;;;;;;;5068338;28;8846;-81
2022/02/12 05:58:56;;;;;;;;;13.67;13.67;;;;;;;;5057878;28;8870;-79
2022/02/12 06:01:23;;;;;;;;;14.33;14.33;;;;;;;;5056779;28;8808;-80
2022/02/12 06:03:52;;;;;;;;;12.33;12.33;;;;;;;;5053921;28;8866;-79
2022/02/12 06:06:19;;;;;;;;;5.33;5.33;;;;;;;;5061590;28;8864;-79
2022/02/12 06:08:47;;;;;;;;;10.00;10.00;;;;;;;;5065691;28;8856;-80
2022/02/12 06:11:14;;;;;;;;;12.67;12.67;;;;;;;;5062603;28;8884;-80
2022/02/12 06:13:42;;;;;;;;;7.67;7.67;;;;;;;;5059937;28;8852;-79
2022/02/12 06:16:09;;;;;;;;;17.33;17.33;;;;;;;;5044688;28;8999;-79
2022/02/12 06:18:37;;;;;;;;;12.33;12.33;;;;;;;;5062335;28;8857;-81
2022/02/12 06:21:07;;;;;;;;;18.33;18.33;;;;;;;;5064051;28;8867;-78
2022/02/12 06:23:36;;;;;;;;;17.33;17.33;;;;;;;;5063483;28;8892;-79
2022/02/12 06:26:04;;;;;;;;;14.33;14.33;;;;;;;;5060559;28;8863;-78
2022/02/12 06:28:32;;;;;;;;;9.00;9.00;;;;;;;;5063079;28;8869;-79
2022/02/12 06:31:01;;;;;;;;;16.00;16.00;;;;;;;;5078855;28;9252;-78
2022/02/12 06:33:28;;;;;;;;;14.33;14.33;;;;;;;;5058920;28;8878;-75
2022/02/12 06:35:55;;;;;;;;;12.00;12.00;;;;;;;;5060766;28;8870;-78
2022/02/12 06:38:34;;;;;;;;;9.67;9.67;;;;;;;;5050167;28;8906;-86
2022/02/12 06:41:01;;;;;;;;;11.33;11.33;;;;;;;;5056873;28;8867;-82
2022/02/12 06:43:30;;;;;;;;;18.00;18.00;;;;;;;;5053325;28;8852;-82
2022/02/12 06:45:57;;;;;;;;;13.67;12.67;;;;;;;;5069988;28;8882;-81
2022/02/12 06:48:25;;;;;;;;;15.00;15.00;;;;;;;;5070520;28;8881;-81
2022/02/12 06:50:52;;;;;;;;;18.00;18.00;;;;;;;;5052896;28;8862;-80
2022/02/12 06:53:19;;;;;;;;;13.00;13.00;;;;;;;;5072344;28;8874;-81
2022/02/12 06:55:48;;;;;;;;;17.33;17.33;;;;;;;;5071127;28;8856;-81
2022/02/12 06:58:16;;;;;;;;;18.00;18.00;;;;;;;;5071604;28;8944;-81
2022/02/12 07:00:43;;;;;;;;;19.67;19.67;;;;;;;;5067278;28;8817;-80
2022/02/12 07:03:11;;;;;;;;;22.00;22.00;;;;;;;;5067243;28;9600;-84
2022/02/12 07:05:38;;;;;;;;;19.00;19.00;;;;;;;;5071019;28;8854;-81
2022/02/12 07:08:05;;;;;;;;;22.00;22.00;;;;;;;;5071254;28;8882;-83
2022/02/12 07:10:34;;;;;;;;;20.33;20.33;;;;;;;;5073289;28;8862;-84
2022/02/12 07:13:03;;;;;;;;;25.67;25.00;;;;;;;;5068740;28;8850;-86
2022/02/12 07:15:31;;;;;;;;;25.67;25.67;;;;;;;;5071798;28;8880;-84
2022/02/12 07:17:58;;;;;;;;;25.00;25.00;;;;;;;;5065674;28;9604;-81
2022/02/12 07:20:25;;;;;;;;;24.00;24.00;;;;;;;;5052582;28;8866;-78
2022/02/12 07:22:53;;;;;;;;;20.33;20.33;;;;;;;;5065682;28;9736;-81
2022/02/12 07:25:20;;;;;;;;;25.00;25.00;;;;;;;;5067358;28;8876;-78
2022/02/12 07:27:48;;;;;;;;;21.33;21.33;;;;;;;;5067618;28;8884;-79
2022/02/12 07:30:17;;;;;;;;;21.00;21.00;;;;;;;;5066947;28;9029;-78
2022/02/12 07:32:45;;;;;;;;;22.00;22.00;;;;;;;;5062210;28;8868;-77
2022/02/12 07:35:13;;;;;;;;;26.50;26.50;;;;;;;;5067590;28;8856;-77
2022/02/12 07:37:42;;;;;;;;;18.00;18.00;;;;;;;;5071244;28;8918;-76
2022/02/12 07:40:10;;;;;;;;;34.50;28.00;;;;;;;;5064564;28;8866;-75
2022/02/12 07:42:38;;;;;;;;;24.33;24.33;;;;;;;;5057596;28;8894;-77
2022/02/12 07:45:46;;;;;;;;;18.00;18.00;;;;;;;;5036643;28;8873;-79
2022/02/12 07:48:14;;;;;;;;;29.33;26.67;;;;;;;;5028914;28;9319;-79
2022/02/12 07:50:41;;;;;;;;;22.67;22.67;;;;;;;;5056317;28;8872;-77
2022/02/12 07:53:13;;;;;;;;;29.33;29.33;;;;;;;;5063551;28;8852;-84
2022/02/12 07:55:40;;;;;;;;;25.00;25.00;;;;;;;;5059827;28;8889;-78
2022/02/12 07:58:08;;;;;;;;;30.00;30.00;;;;;;;;5066708;28;8875;-77
2022/02/12 08:00:35;;;;;;;;;23.67;23.67;;;;;;;;5053623;28;8797;-83
2022/02/12 08:03:04;;;;;;;;;25.00;25.00;;;;;;;;5058289;28;8847;-81
2022/02/12 08:05:32;;;;;;;;;28.67;28.67;;;;;;;;5058236;28;8896;-82
2022/02/12 08:08:02;;;;;;;;;28.00;28.00;;;;;;;;5056676;28;8876;-81
2022/02/12 08:13:14;;;;;;;;;34.00;34.00;;;;;;;;5064551;28;8833;-81
2022/02/12 08:15:41;;;;;;;;;47.00;45.75;;;;;;;;5066866;28;8906;-81
2022/02/12 08:18:10;;;;;;;;;32.33;32.33;;;;;;;;5063052;28;8836;-82
2022/02/12 08:20:37;;;;;;;;;39.67;39.67;;;;;;;;5064656;28;8868;-81
2022/02/12 08:23:05;;;;;;;;;29.33;29.33;;;;;;;;5049748;28;8864;-82
2022/02/12 08:25:32;;;;;;;;;37.33;37.33;;;;;;;;5066286;28;9645;-82
2022/02/12 08:27:59;;;;;;;;;33.33;33.33;;;;;;;;5076612;28;8868;-80
2022/02/12 08:30:27;;;;;;;;;37.00;37.00;;;;;;;;5063700;28;9511;-82
2022/02/12 08:32:54;;;;;;;;;28.00;27.33;;;;;;;;5079659;28;8990;-83
2022/02/12 08:35:23;;;;;;;;;41.67;41.67;;;;;;;;5062102;28;8894;-83
2022/02/12 08:37:50;;;;;;;;;35.67;35.67;;;;;;;;5066685;28;8874;-80
2022/02/12 08:40:19;;;;;;;;;37.00;33.67;;;;;;;;5048800;28;8990;-81
2022/02/12 08:42:48;;;;;;;;;35.00;33.33;;;;;;;;5065389;28;8875;-83
2022/02/12 08:45:16;;;;;;;;;36.00;36.00;;;;;;;;5081482;28;8872;-80
2022/02/12 08:47:44;;;;;;;;;47.00;43.00;;;;;;;;5064021;28;8872;-82
2022/02/12 08:50:11;;;;;;;;;36.67;36.67;;;;;;;;5066563;28;8868;-81
2022/02/12 08:52:41;;;;;;;;;43.00;40.67;;;;;;;;5064946;28;8879;-84
2022/02/12 08:55:09;;;;;;;;;33.33;33.33;;;;;;;;5063387;28;8934;-83
2022/02/12 08:57:37;;;;;;;;;46.67;45.33;;;;;;;;5063258;28;8864;-83
2022/02/12 09:00:06;;;;;;;;;51.33;46.00;;;;;;;;5065100;28;8842;-79
2022/02/12 09:02:33;;;;;;;;;55.33;44.67;;;;;;;;5065831;28;8845;-82
2022/02/12 09:05:00;;;;;;;;;52.67;46.67;;;;;;;;5065278;28;8856;-83
2022/02/12 09:07:28;;;;;;;;;72.00;58.00;;;;;;;;5065746;28;8848;-82
2022/02/12 09:09:58;;;;;;;;;40.67;36.67;;;;;;;;5044732;28;8937;-81
2022/02/12 09:12:26;;;;;;;;;21.00;18.33;;;;;;;;5066216;28;8887;-85
2022/02/12 09:14:55;;;;;;;;;23.67;22.67;;;;;;;;5062900;28;9005;-82
2022/02/12 09:17:22;;;;;;;;;27.67;23.67;;;;;;;;5064356;28;8877;-79
2022/02/12 09:19:49;;;;;;;;;23.67;19.00;;;;;;;;5076191;28;11527;-84
2022/02/12 09:22:17;;;;;;;;;20.33;20.33;;;;;;;;5041803;28;11562;-85
2022/02/12 09:24:44;;;;;;;;;19.25;16.25;;;;;;;;5047514;28;11528;-86
2022/02/12 09:27:13;;;;;;;;;22.75;18.75;;;;;;;;5055775;28;11730;-85
2022/02/12 09:29:41;;;;;;;;;27.50;23.00;;;;;;;;5063070;28;11562;-88
2022/02/12 09:32:08;;;;;;;;;21.00;18.75;;;;;;;;5064506;28;11506;-85
2022/02/12 09:34:36;;;;;;;;;35.25;31.75;;;;;;;;5049611;28;11555;-85
2022/02/12 09:37:03;;;;;;;;;28.75;23.75;;;;;;;;5045103;28;11569;-88
2022/02/12 09:39:31;;;;;;;;;20.50;16.75;;;;;;;;5062232;28;11548;-87
2022/02/12 09:42:04;;;;;;;;;19.00;19.00;;;;;;;;5064768;28;11536;-82
2022/02/12 09:44:34;;;;;;;;;18.75;15.00;;;;;;;;5063524;28;12323;-85
2022/02/12 09:47:32;;;;;;;;;10.75;9.00;;;;;;;;5063980;28;11583;-82
2022/02/12 09:50:00;;;;;;;;;11.75;11.75;;;;;;;;5062113;28;11578;-88
2022/02/12 09:52:31;;;;;;;;;127.33;102.33;;;;;;;;5062526;28;11486;-85
2022/02/12 09:54:59;;;;;;;;;8.00;8.00;;;;;;;;5063847;28;8841;-81
2022/02/12 09:57:26;;;;;;;;;19.50;19.50;;;;;;;;5062430;28;11526;-83
2022/02/12 10:00:05;;;;;;;;;9.00;7.00;;;;;;;;5061575;28;11646;-86
2022/02/12 10:02:32;;;;;;;;;14.50;12.25;;;;;;;;5063407;28;11492;-82
2022/02/12 10:05:20;;;;;;;;;6.75;5.25;;;;;;;;5065297;28;11579;-85
2022/02/12 10:07:50;;;;;;;;;12.75;10.25;;;;;;;;5059802;28;11593;-84
2022/02/12 10:10:20;;;;;;;;;9.50;8.00;;;;;;;;5059232;28;11559;-85
2022/02/12 10:12:47;;;;;;;;;9.00;9.00;;;;;;;;5065834;28;11483;-86
2022/02/12 10:15:29;;;;;;;;;8.00;8.00;;;;;;;;5066610;28;11536;-85
2022/02/12 10:17:58;;;;;;;;;9.00;8.00;;;;;;;;5067208;28;11505;-85
2022/02/12 10:20:34;;;;;;;;;14.00;12.50;;;;;;;;5064654;28;12109;-87
2022/02/12 10:23:12;;;;;;;;;15.50;15.25;;;;;;;;5060443;28;12314;-88
2022/02/12 10:25:44;;;;;;;;;6.00;6.00;;;;;;;;5055757;28;11709;-76
2022/02/12 10:28:16;;;;;;;;;13.25;11.50;;;;;;;;5060445;28;11425;-76
2022/02/12 10:30:46;;;;;;;;;6.75;6.00;;;;;;;;5058832;28;11570;-78
2022/02/12 10:33:14;;;;;;;;;8.25;8.25;;;;;;;;5052081;28;11502;-83
2022/02/12 10:35:43;;;;;;;;;6.75;6.75;;;;;;;;5057518;28;11441;-84
2022/02/12 10:38:15;;;;;;;;;7.50;6.00;;;;;;;;5060592;28;11524;-83
2022/02/12 10:41:06;;;;;;;;;4.50;4.50;;;;;;;;5061665;28;11450;-83
2022/02/12 10:43:34;;;;;;;;;6.00;6.00;;;;;;;;5060057;28;11433;-80
2022/02/12 10:46:04;;;;;;;;;5.50;5.00;;;;;;;;5044910;28;11575;-81
2022/02/12 10:48:35;;;;;;;;;6.50;5.75;;;;;;;;5057313;28;11117;-82
2022/02/12 10:51:03;;;;;;;;;8.00;8.00;;;;;;;;5059277;28;12188;-81
2022/02/12 10:53:30;;;;;;;;;8.00;7.00;;;;;;;;5040476;28;11133;-82
2022/02/12 10:55:59;;;;;;;;;5.75;5.75;;;;;;;;5054637;28;11535;-83
2022/02/12 10:58:26;;;;;;;;;5.00;5.00;;;;;;;;5056060;28;11121;-81
2022/02/12 11:00:54;;;;;;;;;7.25;5.00;;;;;;;;5055708;28;11908;-78
2022/02/12 11:03:25;;;;;;;;;6.75;3.00;;;;;;;;5057946;28;11028;-85
2022/02/12 11:05:54;;;;;;;;;5.00;5.00;;;;;;;;5051947;28;10993;-79
2022/02/12 11:08:22;;;;;;;;;4.50;4.50;;;;;;;;5054838;28;10839;-82
2022/02/12 11:10:49;;;;;;;;;8.50;6.75;;;;;;;;5055162;28;12058;-80
2022/02/12 11:13:17;;;;;;;;;7.00;5.00;;;;;;;;5057243;28;10975;-81
2022/02/12 11:15:44;;;;;;;;;3.00;3.00;;;;;;;;5060113;28;10808;-80
2022/02/12 11:18:14;;;;;;;;;8.25;6.00;;;;;;;;5051080;28;10780;-81
2022/02/12 11:20:44;;;;;;;;;3.00;3.00;;;;;;;;5065944;28;10827;-83
2022/02/12 11:23:30;;;;;;;;;6.00;4.50;;;;;;;;5049540;28;10837;-79
2022/02/12 11:26:21;;;;;;;;;6.00;5.00;;;;;;;;5034453;28;10806;-84
2022/02/12 11:28:50;;;;;;;;;7.00;5.00;;;;;;;;5060127;28;10528;-84
2022/02/12 11:31:22;;;;;;;;;5.25;5.25;;;;;;;;5054702;28;10569;-78
2022/02/12 11:34:09;;;;;;;;;5.00;5.00;;;;;;;;5057428;28;10717;-82
2022/02/12 11:36:38;;;;;;;;;6.00;3.00;;;;;;;;5066402;28;10694;-81
2022/02/12 11:39:10;;;;;;;;;5.75;5.75;;;;;;;;5062824;28;10777;-82
2022/02/12 11:41:38;;;;;;;;;6.00;6.00;;;;;;;;5065168;28;11457;-79
2022/02/12 11:44:06;;;;;;;;;6.00;4.50;;;;;;;;5063565;28;10618;-80
2022/02/12 11:46:59;;;;;;;;;5.50;5.50;;;;;;;;5082563;28;10399;-82
2022/02/12 11:49:28;;;;;;;;;9.00;5.50;;;;;;;;5059302;28;10408;-80
2022/02/12 11:52:00;;;;;;;;;3.00;3.00;;;;;;;;5046054;28;10396;-82
2022/02/12 11:54:57;;;;;;;;;3.25;3.25;;;;;;;;5059005;28;10114;-81
2022/02/12 11:57:43;;;;;;;;;3.25;3.25;;;;;;;;5059406;28;10234;-78
2022/02/12 12:00:44;;;;;;;;;3.00;3.00;;;;;;;;5062443;28;10020;-82
2022/02/12 12:03:11;;;;;;;;;5.50;3.00;;;;;;;;5028701;28;10105;-80
2022/02/12 12:05:40;;;;;;;;;3.50;2.00;;;;;;;;5025924;28;10195;-80
2022/02/12 12:08:15;;;;;;;;;3.75;2.75;;;;;;;;5039400;28;10171;-82
2022/02/12 12:11:11;;;;;;;;;6.50;4.75;;;;;;;;5063564;28;10182;-84
2022/02/12 12:13:44;;;;;;;;;3.00;3.00;;;;;;;;5062856;28;10197;-78
2022/02/12 12:16:22;;;;;;;;;2.00;2.00;;;;;;;;5065995;28;10387;-83
2022/02/12 12:18:49;;;;;;;;;4.50;3.25;;;;;;;;5066573;28;10270;-83
2022/02/12 12:21:18;;;;;;;;;7.50;3.50;;;;;;;;5044891;28;10201;-80
2022/02/12 12:23:56;;;;;;;;;4.75;4.25;;;;;;;;5057413;28;10168;-81
2022/02/12 12:26:41;;;;;;;;;5.75;4.75;;;;;;;;5065051;28;10265;-81
2022/02/12 12:31:55;;;;;;;;;6.25;4.25;;;;;;;;5065394;28;10143;-80
2022/02/12 12:34:22;;;;;;;;;8.75;3.00;;;;;;;;5059758;28;10032;-81
2022/02/12 12:36:50;;;;;;;;;3.00;3.00;;;;;;;;5056682;28;9889;-80
2022/02/12 12:39:19;;;;;;;;;2.50;2.50;;;;;;;;5054832;28;9863;-81
2022/02/12 12:41:47;;;;;;;;;3.50;3.00;;;;;;;;5023020;28;9733;-81
2022/02/12 12:44:16;;;;;;;;;3.00;3.00;;;;;;;;5041331;28;9781;-82
2022/02/12 12:46:45;;;;;;;;;3.00;3.00;;;;;;;;5065191;28;9847;-81
2022/02/12 12:49:13;;;;;;;;;2.75;2.75;;;;;;;;5064005;28;10089;-81
2022/02/12 12:51:50;;;;;;;;;0.50;0.50;;;;;;;;5046872;28;9705;-80
2022/02/12 12:54:27;;;;;;;;;4.50;4.50;;;;;;;;5043820;28;9564;-80
2022/02/12 12:56:56;;;;;;;;;6.00;6.00;;;;;;;;5065673;28;9883;-80
2022/02/12 12:59:23;;;;;;;;;2.50;2.00;;;;;;;;5067177;28;9797;-80
2022/02/12 13:01:58;;;;;;;;;3.25;3.25;;;;;;;;5048074;28;9573;-80
2022/02/12 13:04:26;;;;;;;;;3.00;3.00;;;;;;;;5050273;28;10375;-82
2022/02/12 13:06:55;;;;;;;;;3.25;3.25;;;;;;;;5058342;28;9633;-79
2022/02/12 13:09:24;;;;;;;;;2.25;2.25;;;;;;;;5054126;28;9576;-81
2022/02/12 13:11:51;;;;;;;;;6.00;3.00;;;;;;;;5041044;28;9517;-81
2022/02/12 13:14:18;;;;;;;;;5.00;2.75;;;;;;;;5058341;28;9427;-81
2022/02/12 13:16:47;;;;;;;;;1.50;1.50;;;;;;;;5057819;28;9579;-81
2022/02/12 13:19:15;;;;;;;;;2.00;2.00;;;;;;;;5055133;28;9405;-81
2022/02/12 13:21:50;;;;;;;;;4.00;2.25;;;;;;;;5069363;28;9389;-81
2022/02/12 13:24:19;;;;;;;;;2.00;2.00;;;;;;;;5058610;28;10339;-81
2022/02/12 13:26:48;;;;;;;;;3.00;3.00;;;;;;;;5061814;28;9271;-82
2022/02/12 13:29:23;;;;;;;;;1.67;1.67;;;;;;;;5062715;28;9382;-82
2022/02/12 13:31:54;;;;;;;;;1.00;1.00;;;;;;;;5065458;28;9124;-79
2022/02/12 13:34:26;;;;;;;;;1.00;1.00;;;;;;;;5054897;28;9173;-79
2022/02/12 13:36:53;;;;;;;;;1.00;1.00;;;;;;;;5066378;28;9093;-81
2022/02/12 13:39:22;;;;;;;;;2.00;2.00;;;;;;;;5078515;28;9023;-81
2022/02/12 13:41:54;;;;;;;;;2.33;2.33;;;;;;;;5062234;28;9080;-83
2022/02/12 13:44:28;;;;;;;;;3.00;3.00;;;;;;;;5047592;28;8954;-84
2022/02/12 13:46:56;;;;;;;;;2.33;2.00;;;;;;;;5065360;28;8961;-79
2022/02/12 13:49:26;;;;;;;;;2.00;2.00;;;;;;;;5062413;28;9056;-81
2022/02/12 13:51:54;;;;;;;;;1.00;1.00;;;;;;;;5067211;28;9020;-80
2022/02/12 13:54:22;;;;;;;;;2.00;2.00;;;;;;;;5060676;28;9082;-82
2022/02/12 13:56:52;;;;;;;;;3.00;3.00;;;;;;;;5056706;28;9110;-86
2022/02/12 13:59:21;;;;;;;;;4.00;2.00;;;;;;;;5064760;28;9962;-81
2022/02/12 14:01:49;;;;;;;;;2.00;2.00;;;;;;;;5059475;28;9134;-80
2022/02/12 14:04:16;;;;;;;;;1.00;1.00;;;;;;;;5053225;28;9179;-83
2022/02/12 14:06:44;;;;;;;;;2.00;2.00;;;;;;;;5057300;28;9197;-80
2022/02/12 14:09:14;;;;;;;;;4.00;2.00;;;;;;;;5061768;28;9226;-79
2022/02/12 14:11:42;;;;;;;;;2.00;2.00;;;;;;;;5063763;28;9944;-79
2022/02/12 14:14:13;;;;;;;;;2.00;2.00;;;;;;;;5057261;28;9188;-80
2022/02/12 14:16:40;;;;;;;;;2.33;2.33;;;;;;;;5057483;28;9281;-80
2022/02/12 14:19:08;;;;;;;;;2.00;2.00;;;;;;;;5068092;28;9075;-79
2022/02/12 14:21:36;;;;;;;;;1.67;1.67;;;;;;;;5051169;28;9168;-80
2022/02/12 14:24:04;;;;;;;;;2.67;2.00;;;;;;;;5056772;28;9235;-80
2022/02/12 14:26:32;;;;;;;;;2.33;2.33;;;;;;;;5062999;28;9181;-79
2022/02/12 14:29:00;;;;;;;;;2.00;2.00;;;;;;;;5060295;28;9213;-78
2022/02/12 14:31:29;;;;;;;;;4.00;3.00;;;;;;;;5055281;28;9351;-80
2022/02/12 14:33:56;;;;;;;;;4.67;1.33;;;;;;;;5064096;28;9244;-79
2022/02/12 14:36:24;;;;;;;;;3.33;2.67;;;;;;;;5055099;28;9105;-81
2022/02/12 14:38:52;;;;;;;;;3.67;3.67;;;;;;;;5056687;28;9189;-83
2022/02/12 14:41:20;;;;;;;;;2.00;2.00;;;;;;;;5063184;28;10070;-80
2022/02/12 14:43:48;;;;;;;;;2.00;2.00;;;;;;;;5038965;28;9922;-81
2022/02/12 14:46:15;;;;;;;;;1.33;1.33;;;;;;;;5055792;28;9031;-81
2022/02/12 14:48:45;;;;;;;;;2.00;2.00;;;;;;;;5056188;28;9168;-84
2022/02/12 14:51:13;;;;;;;;;2.33;1.67;;;;;;;;5057509;28;9085;-79
2022/02/12 14:53:40;;;;;;;;;3.00;3.00;;;;;;;;5060666;28;9005;-79
2022/02/12 14:56:07;;;;;;;;;2.00;2.00;;;;;;;;5056306;28;9204;-81
2022/02/12 14:58:35;;;;;;;;;1.00;1.00;;;;;;;;5052367;28;9124;-81